THY72T EGLL-LOWW
Flight info
| Callsign | THY72T |
|---|---|
| Flight time | 2h 2m |
| Altitude | 39000 |
| Route | DET1J DET L6 DVR UL9 KONAN DCT KOK DCT MATUG DCT GUBAX DCT BARSU DCT EKSOS DCT LULAR DCT RUDAP DCT BUDEX BUDEX2W |
| Aircraft | A20N/M-V/N |
Departure
| Time | 2026-04-22 10:09 |
|---|---|
| Airport | London Heathrow Airport (EGLL) |
Arrival
| Time | 2026-04-22 12:12 |
|---|---|
| Airport | Vienna International Airport (LOWW) |
| Time | Latitude | Longitude | Altitude | Speed | Heading |
|---|---|---|---|---|---|
| 2026-04-22 09:50 | 51.46916 | -0.47714 | 89 ft | 0 kts | 90° |
| 2026-04-22 09:56 | 51.46916 | -0.47720 | 89 ft | 1 kts | 90° |
| 2026-04-22 09:56 | 51.46916 | -0.47735 | 92 ft | 1 kts | 92° |
| 2026-04-22 09:57 | 51.46917 | -0.47751 | 89 ft | 2 kts | 91° |
| 2026-04-22 09:57 | 51.46917 | -0.47777 | 88 ft | 4 kts | 91° |
| 2026-04-22 09:57 | 51.46918 | -0.47810 | 88 ft | 2 kts | 91° |
| 2026-04-22 09:57 | 51.46919 | -0.47834 | 89 ft | 2 kts | 104° |
| 2026-04-22 09:58 | 51.46925 | -0.47856 | 90 ft | 2 kts | 138° |
| 2026-04-22 09:58 | 51.46938 | -0.47869 | 89 ft | 2 kts | 169° |
| 2026-04-22 09:58 | 51.46942 | -0.47870 | 89 ft | 0 kts | 177° |
| 2026-04-22 10:01 | 51.46927 | -0.47869 | 91 ft | 8 kts | 177° |
| 2026-04-22 10:01 | 51.46846 | -0.47868 | 88 ft | 14 kts | 180° |
| 2026-04-22 10:02 | 51.46754 | -0.47909 | 91 ft | 15 kts | 233° |
| 2026-04-22 10:02 | 51.46742 | -0.48073 | 90 ft | 12 kts | 271° |
| 2026-04-22 10:02 | 51.46742 | -0.48113 | 90 ft | 0 kts | 271° |
| 2026-04-22 10:03 | 51.46742 | -0.48125 | 90 ft | 8 kts | 271° |
| 2026-04-22 10:03 | 51.46744 | -0.48254 | 93 ft | 13 kts | 270° |
| 2026-04-22 10:03 | 51.46743 | -0.48366 | 94 ft | 0 kts | 269° |
| 2026-04-22 10:03 | 51.46743 | -0.48371 | 94 ft | 5 kts | 269° |
| 2026-04-22 10:04 | 51.46740 | -0.48568 | 92 ft | 22 kts | 268° |
| 2026-04-22 10:04 | 51.46708 | -0.48735 | 93 ft | 6 kts | 209° |
| 2026-04-22 10:04 | 51.46682 | -0.48747 | 93 ft | 0 kts | 187° |
| 2026-04-22 10:05 | 51.46610 | -0.48761 | 93 ft | 14 kts | 193° |
| 2026-04-22 10:05 | 51.46602 | -0.48765 | 93 ft | 0 kts | 197° |
| 2026-04-22 10:07 | 51.46583 | -0.48774 | 92 ft | 12 kts | 197° |
| 2026-04-22 10:07 | 51.46489 | -0.48733 | 93 ft | 16 kts | 122° |
| 2026-04-22 10:07 | 51.46477 | -0.48634 | 93 ft | 1 kts | 90° |
| 2026-04-22 10:07 | 51.46477 | -0.48632 | 93 ft | 1 kts | 90° |
| 2026-04-22 10:08 | 51.46477 | -0.48602 | 92 ft | 0 kts | 90° |
| 2026-04-22 10:08 | 51.46477 | -0.48417 | 94 ft | 53 kts | 90° |
| 2026-04-22 10:08 | 51.46483 | -0.47377 | 88 ft | 128 kts | 90° |
| 2026-04-22 10:09 | 51.46481 | -0.45718 | 384 ft | 155 kts | 90° |
| 2026-04-22 10:09 | 51.46487 | -0.44086 | 996 ft | 142 kts | 89° |
| 2026-04-22 10:09 | 51.46508 | -0.42485 | 1672 ft | 147 kts | 89° |
| 2026-04-22 10:09 | 51.46325 | -0.40844 | 2328 ft | 154 kts | 114° |
| 2026-04-22 10:10 | 51.45782 | -0.39319 | 2984 ft | 163 kts | 124° |
| 2026-04-22 10:10 | 51.45119 | -0.37795 | 3649 ft | 171 kts | 125° |
| 2026-04-22 10:10 | 51.44565 | -0.36086 | 4302 ft | 182 kts | 110° |
| 2026-04-22 10:10 | 51.44131 | -0.34078 | 4943 ft | 197 kts | 109° |
| 2026-04-22 10:11 | 51.43685 | -0.31912 | 5623 ft | 212 kts | 108° |
| 2026-04-22 10:11 | 51.43218 | -0.29582 | 6298 ft | 227 kts | 108° |
| 2026-04-22 10:11 | 51.42790 | -0.27064 | 6969 ft | 241 kts | 102° |
| 2026-04-22 10:11 | 51.42428 | -0.24358 | 7646 ft | 255 kts | 102° |
| 2026-04-22 10:12 | 51.42049 | -0.21554 | 8379 ft | 260 kts | 102° |
| 2026-04-22 10:12 | 51.41661 | -0.18704 | 9139 ft | 263 kts | 102° |
| 2026-04-22 10:12 | 51.41267 | -0.15833 | 9873 ft | 266 kts | 102° |
| 2026-04-22 10:12 | 51.40860 | -0.12893 | 10514 ft | 277 kts | 103° |
| 2026-04-22 10:13 | 51.40419 | -0.09763 | 10649 ft | 295 kts | 103° |
| 2026-04-22 10:13 | 51.39966 | -0.06558 | 10648 ft | 294 kts | 103° |
| 2026-04-22 10:13 | 51.39514 | -0.03367 | 10640 ft | 294 kts | 103° |
| 2026-04-22 10:13 | 51.39059 | -0.00163 | 10434 ft | 295 kts | 103° |
| 2026-04-22 10:14 | 51.38608 | 0.03016 | 10180 ft | 291 kts | 103° |
| 2026-04-22 10:14 | 51.38158 | 0.06181 | 9928 ft | 292 kts | 103° |
| 2026-04-22 10:14 | 51.37709 | 0.09330 | 9834 ft | 288 kts | 103° |
| 2026-04-22 10:14 | 51.37257 | 0.12463 | 9835 ft | 291 kts | 103° |
| 2026-04-22 10:15 | 51.36799 | 0.15629 | 9979 ft | 294 kts | 103° |
| 2026-04-22 10:15 | 51.36334 | 0.18826 | 10649 ft | 296 kts | 103° |
| 2026-04-22 10:15 | 51.35877 | 0.21988 | 11692 ft | 296 kts | 103° |
| 2026-04-22 10:15 | 51.35414 | 0.25216 | 12578 ft | 301 kts | 103° |
| 2026-04-22 10:16 | 51.34942 | 0.28504 | 13446 ft | 305 kts | 103° |
| 2026-04-22 10:16 | 51.34463 | 0.31834 | 14309 ft | 309 kts | 103° |
| 2026-04-22 10:16 | 51.33978 | 0.35196 | 15124 ft | 313 kts | 103° |
| 2026-04-22 10:16 | 51.33484 | 0.38611 | 15913 ft | 317 kts | 103° |
| 2026-04-22 10:17 | 51.32983 | 0.42064 | 16732 ft | 320 kts | 103° |
| 2026-04-22 10:17 | 51.32476 | 0.45550 | 17483 ft | 324 kts | 103° |
| 2026-04-22 10:17 | 51.31961 | 0.49082 | 18213 ft | 328 kts | 103° |
| 2026-04-22 10:17 | 51.31438 | 0.52653 | 18924 ft | 332 kts | 103° |
| 2026-04-22 10:18 | 51.30908 | 0.56270 | 19615 ft | 336 kts | 103° |
| 2026-04-22 10:18 | 51.30366 | 0.59924 | 20299 ft | 339 kts | 105° |
| 2026-04-22 10:18 | 51.29704 | 0.63566 | 20959 ft | 343 kts | 106° |
| 2026-04-22 10:18 | 51.29031 | 0.67240 | 21618 ft | 346 kts | 106° |
| 2026-04-22 10:19 | 51.28351 | 0.70958 | 22220 ft | 350 kts | 106° |
| 2026-04-22 10:19 | 51.27667 | 0.74698 | 22835 ft | 353 kts | 106° |
| 2026-04-22 10:19 | 51.26972 | 0.78490 | 23436 ft | 356 kts | 106° |
| 2026-04-22 10:19 | 51.26270 | 0.82307 | 24012 ft | 360 kts | 106° |
| 2026-04-22 10:20 | 51.25570 | 0.86111 | 24565 ft | 363 kts | 106° |
| 2026-04-22 10:20 | 51.24853 | 0.89991 | 25104 ft | 366 kts | 106° |
| 2026-04-22 10:20 | 51.24130 | 0.93902 | 25625 ft | 369 kts | 107° |
| 2026-04-22 10:20 | 51.23398 | 0.97849 | 26143 ft | 372 kts | 107° |
| 2026-04-22 10:21 | 51.22659 | 1.01826 | 26624 ft | 375 kts | 107° |
| 2026-04-22 10:21 | 51.21914 | 1.05831 | 27102 ft | 378 kts | 107° |
| 2026-04-22 10:21 | 51.21160 | 1.09871 | 27559 ft | 381 kts | 107° |
| 2026-04-22 10:21 | 51.20400 | 1.13937 | 28016 ft | 384 kts | 107° |
| 2026-04-22 10:22 | 51.19634 | 1.18023 | 28450 ft | 386 kts | 107° |
| 2026-04-22 10:22 | 51.18860 | 1.22144 | 28856 ft | 389 kts | 107° |
| 2026-04-22 10:22 | 51.18079 | 1.26290 | 29265 ft | 392 kts | 107° |
| 2026-04-22 10:22 | 51.17293 | 1.30459 | 29654 ft | 394 kts | 107° |
| 2026-04-22 10:23 | 51.16536 | 1.34669 | 30043 ft | 397 kts | 103° |
| 2026-04-22 10:23 | 51.16095 | 1.39019 | 30418 ft | 399 kts | 95° |
| 2026-04-22 10:23 | 51.15896 | 1.43442 | 30801 ft | 401 kts | 94° |
| 2026-04-22 10:23 | 51.15693 | 1.47882 | 31173 ft | 403 kts | 94° |
| 2026-04-22 10:24 | 51.15481 | 1.52353 | 31526 ft | 406 kts | 94° |
| 2026-04-22 10:24 | 51.15263 | 1.56851 | 31872 ft | 408 kts | 94° |
| 2026-04-22 10:24 | 51.15042 | 1.61365 | 32203 ft | 410 kts | 94° |
| 2026-04-22 10:24 | 51.14821 | 1.65853 | 32527 ft | 413 kts | 94° |
| 2026-04-22 10:25 | 51.14593 | 1.70422 | 32843 ft | 415 kts | 94° |
| 2026-04-22 10:25 | 51.14363 | 1.75006 | 33150 ft | 417 kts | 95° |
| 2026-04-22 10:25 | 51.14130 | 1.79630 | 33448 ft | 419 kts | 95° |
| 2026-04-22 10:25 | 51.13894 | 1.84264 | 33737 ft | 421 kts | 95° |
| 2026-04-22 10:26 | 51.13655 | 1.88918 | 34017 ft | 423 kts | 95° |
| 2026-04-22 10:26 | 51.13413 | 1.93602 | 34290 ft | 425 kts | 95° |
| 2026-04-22 10:26 | 51.13168 | 1.98297 | 34554 ft | 426 kts | 95° |
| 2026-04-22 10:26 | 51.12920 | 2.03013 | 34808 ft | 428 kts | 95° |
| 2026-04-22 10:27 | 51.12668 | 2.07766 | 35061 ft | 430 kts | 95° |
| 2026-04-22 10:27 | 51.12415 | 2.12514 | 35302 ft | 432 kts | 95° |
| 2026-04-22 10:27 | 51.12157 | 2.17305 | 35538 ft | 433 kts | 95° |
| 2026-04-22 10:27 | 51.11900 | 2.22035 | 35762 ft | 435 kts | 95° |
| 2026-04-22 10:28 | 51.11637 | 2.26849 | 35982 ft | 437 kts | 95° |
| 2026-04-22 10:28 | 51.11372 | 2.31676 | 36187 ft | 438 kts | 95° |
| 2026-04-22 10:28 | 51.11103 | 2.36513 | 36385 ft | 440 kts | 95° |
| 2026-04-22 10:28 | 51.10831 | 2.41376 | 36572 ft | 442 kts | 95° |
| 2026-04-22 10:29 | 51.10557 | 2.46256 | 36756 ft | 444 kts | 95° |
| 2026-04-22 10:29 | 51.10279 | 2.51155 | 36935 ft | 445 kts | 95° |
| 2026-04-22 10:29 | 51.09998 | 2.56065 | 37108 ft | 447 kts | 95° |
| 2026-04-22 10:29 | 51.09714 | 2.60995 | 37276 ft | 449 kts | 95° |
| 2026-04-22 10:30 | 51.09300 | 2.65924 | 37434 ft | 450 kts | 101° |
| 2026-04-22 10:30 | 51.08558 | 2.70766 | 37598 ft | 451 kts | 105° |
| 2026-04-22 10:30 | 51.07748 | 2.75589 | 37802 ft | 451 kts | 105° |
| 2026-04-22 10:30 | 51.06947 | 2.80412 | 38013 ft | 451 kts | 105° |
| 2026-04-22 10:31 | 51.06149 | 2.85241 | 38211 ft | 451 kts | 104° |
| 2026-04-22 10:31 | 51.05361 | 2.90005 | 38413 ft | 451 kts | 105° |
| 2026-04-22 10:31 | 51.04562 | 2.94820 | 38590 ft | 451 kts | 105° |
| 2026-04-22 10:31 | 51.03757 | 2.99648 | 38771 ft | 451 kts | 105° |
| 2026-04-22 10:32 | 51.02951 | 3.04459 | 38944 ft | 451 kts | 105° |
| 2026-04-22 10:32 | 51.02142 | 3.09279 | 38998 ft | 451 kts | 105° |
| 2026-04-22 10:32 | 51.00519 | 3.18894 | 39012 ft | 450 kts | 105° |
| 2026-04-22 10:33 | 50.98889 | 3.28496 | 39013 ft | 450 kts | 105° |
| 2026-04-22 10:33 | 50.97254 | 3.38082 | 39013 ft | 450 kts | 105° |
| 2026-04-22 10:34 | 50.95607 | 3.47679 | 39012 ft | 450 kts | 105° |
| 2026-04-22 10:34 | 50.93954 | 3.57258 | 39008 ft | 450 kts | 105° |
| 2026-04-22 10:35 | 50.92295 | 3.66822 | 39001 ft | 450 kts | 105° |
| 2026-04-22 10:35 | 50.90637 | 3.76333 | 39003 ft | 450 kts | 105° |
| 2026-04-22 10:36 | 50.88960 | 3.85896 | 39013 ft | 451 kts | 105° |
| 2026-04-22 10:36 | 50.87274 | 3.95462 | 39013 ft | 450 kts | 105° |
| 2026-04-22 10:37 | 50.84732 | 4.09783 | 39002 ft | 450 kts | 105° |
| 2026-04-22 10:38 | 50.83029 | 4.19322 | 39013 ft | 451 kts | 106° |
| 2026-04-22 10:38 | 50.81326 | 4.28802 | 39013 ft | 450 kts | 106° |
| 2026-04-22 10:39 | 50.79608 | 4.38321 | 39002 ft | 451 kts | 106° |
| 2026-04-22 10:39 | 50.77875 | 4.47869 | 39005 ft | 451 kts | 106° |
| 2026-04-22 10:40 | 50.76140 | 4.57377 | 39007 ft | 451 kts | 106° |
| 2026-04-22 10:40 | 50.74691 | 4.65286 | 39012 ft | 451 kts | 106° |
| 2026-04-22 10:41 | 50.72955 | 4.74711 | 39008 ft | 451 kts | 106° |
| 2026-04-22 10:41 | 50.70897 | 4.85825 | 39004 ft | 451 kts | 106° |
| 2026-04-22 10:42 | 50.69417 | 4.93774 | 39005 ft | 451 kts | 106° |
| 2026-04-22 10:42 | 50.67642 | 5.03263 | 39002 ft | 451 kts | 107° |
| 2026-04-22 10:43 | 50.65861 | 5.12740 | 39005 ft | 451 kts | 107° |
| 2026-04-22 10:43 | 50.64082 | 5.22155 | 39009 ft | 451 kts | 107° |
| 2026-04-22 10:44 | 50.62280 | 5.31643 | 39013 ft | 451 kts | 107° |
| 2026-04-22 10:44 | 50.60476 | 5.41098 | 39002 ft | 451 kts | 107° |
| 2026-04-22 10:45 | 50.58663 | 5.50552 | 39014 ft | 451 kts | 107° |
| 2026-04-22 10:45 | 50.56842 | 5.60000 | 39004 ft | 451 kts | 107° |
| 2026-04-22 10:46 | 50.55010 | 5.69454 | 39005 ft | 452 kts | 107° |
| 2026-04-22 10:46 | 50.53168 | 5.78917 | 39010 ft | 452 kts | 107° |
| 2026-04-22 10:47 | 50.51334 | 5.88292 | 39002 ft | 452 kts | 107° |
| 2026-04-22 10:47 | 50.49476 | 5.97741 | 39000 ft | 453 kts | 107° |
| 2026-04-22 10:48 | 50.47609 | 6.07195 | 39013 ft | 454 kts | 107° |
| 2026-04-22 10:48 | 50.45728 | 6.16668 | 39007 ft | 454 kts | 107° |
| 2026-04-22 10:49 | 50.43843 | 6.26124 | 39009 ft | 454 kts | 107° |
| 2026-04-22 10:49 | 50.41967 | 6.35598 | 39008 ft | 454 kts | 104° |
| 2026-04-22 10:50 | 50.40998 | 6.45383 | 39007 ft | 455 kts | 96° |
| 2026-04-22 10:50 | 50.40277 | 6.55152 | 39011 ft | 454 kts | 97° |
| 2026-04-22 10:51 | 50.39528 | 6.64980 | 38998 ft | 453 kts | 97° |
| 2026-04-22 10:51 | 50.38762 | 6.74797 | 39011 ft | 453 kts | 97° |
| 2026-04-22 10:52 | 50.37989 | 6.84588 | 39001 ft | 453 kts | 97° |
| 2026-04-22 10:52 | 50.37206 | 6.94389 | 39008 ft | 453 kts | 97° |
| 2026-04-22 10:53 | 50.36421 | 7.04119 | 39011 ft | 454 kts | 97° |
| 2026-04-22 10:53 | 50.35622 | 7.13920 | 39012 ft | 453 kts | 97° |
| 2026-04-22 10:54 | 50.34815 | 7.23712 | 39011 ft | 453 kts | 97° |
| 2026-04-22 10:54 | 50.34003 | 7.33461 | 39011 ft | 451 kts | 97° |
| 2026-04-22 10:55 | 50.33183 | 7.43208 | 39009 ft | 452 kts | 97° |
| 2026-04-22 10:55 | 50.32354 | 7.52957 | 39009 ft | 451 kts | 97° |
| 2026-04-22 10:56 | 50.31519 | 7.62680 | 39002 ft | 451 kts | 98° |
| 2026-04-22 10:56 | 50.30675 | 7.72415 | 39001 ft | 453 kts | 98° |
| 2026-04-22 10:57 | 50.29822 | 7.82158 | 39004 ft | 451 kts | 98° |
| 2026-04-22 10:57 | 50.28920 | 7.91874 | 39004 ft | 452 kts | 101° |
| 2026-04-22 10:58 | 50.27590 | 8.01430 | 39006 ft | 452 kts | 102° |
| 2026-04-22 10:58 | 50.26273 | 8.11037 | 39004 ft | 452 kts | 102° |
| 2026-04-22 10:59 | 50.24940 | 8.20652 | 39006 ft | 453 kts | 102° |
| 2026-04-22 10:59 | 50.23595 | 8.30250 | 39009 ft | 452 kts | 102° |
| 2026-04-22 11:00 | 50.22241 | 8.39844 | 39010 ft | 453 kts | 102° |
| 2026-04-22 11:00 | 50.20873 | 8.49473 | 39012 ft | 455 kts | 102° |
| 2026-04-22 11:01 | 50.19502 | 8.59062 | 39012 ft | 451 kts | 103° |
| 2026-04-22 11:01 | 50.18130 | 8.68603 | 39003 ft | 451 kts | 103° |
| 2026-04-22 11:02 | 50.16756 | 8.78096 | 39009 ft | 451 kts | 103° |
| 2026-04-22 11:02 | 50.15366 | 8.87638 | 39002 ft | 451 kts | 103° |
| 2026-04-22 11:03 | 50.13968 | 8.97175 | 39006 ft | 451 kts | 103° |
| 2026-04-22 11:03 | 50.12562 | 9.06708 | 39003 ft | 451 kts | 103° |
| 2026-04-22 11:04 | 50.11146 | 9.16250 | 39006 ft | 452 kts | 103° |
| 2026-04-22 11:04 | 50.09722 | 9.25789 | 39008 ft | 452 kts | 103° |
| 2026-04-22 11:05 | 50.08290 | 9.35325 | 39012 ft | 454 kts | 103° |
| 2026-04-22 11:05 | 50.06857 | 9.44808 | 39006 ft | 452 kts | 103° |
| 2026-04-22 11:06 | 50.05409 | 9.54338 | 38693 ft | 452 kts | 103° |
| 2026-04-22 11:06 | 50.04681 | 9.59104 | 38469 ft | 451 kts | 103° |
| 2026-04-22 11:06 | 50.03953 | 9.63863 | 38408 ft | 454 kts | 103° |
| 2026-04-22 11:06 | 50.03220 | 9.68633 | 38608 ft | 453 kts | 103° |
| 2026-04-22 11:07 | 50.02485 | 9.73403 | 38784 ft | 453 kts | 103° |
| 2026-04-22 11:07 | 50.01748 | 9.78173 | 38953 ft | 453 kts | 103° |
| 2026-04-22 11:07 | 50.01011 | 9.82928 | 38997 ft | 453 kts | 103° |
| 2026-04-22 11:08 | 49.99531 | 9.92436 | 39006 ft | 452 kts | 103° |
| 2026-04-22 11:08 | 49.98045 | 10.01929 | 39006 ft | 452 kts | 104° |
| 2026-04-22 11:09 | 49.96562 | 10.11345 | 39008 ft | 452 kts | 104° |
| 2026-04-22 11:09 | 49.95062 | 10.20819 | 39012 ft | 452 kts | 104° |
| 2026-04-22 11:10 | 49.93552 | 10.30299 | 39012 ft | 452 kts | 104° |
| 2026-04-22 11:10 | 49.91935 | 10.39702 | 39011 ft | 452 kts | 109° |
| 2026-04-22 11:11 | 49.89618 | 10.48789 | 39010 ft | 453 kts | 112° |
| 2026-04-22 11:11 | 49.87281 | 10.57851 | 39014 ft | 452 kts | 112° |
| 2026-04-22 11:12 | 49.84936 | 10.66907 | 39006 ft | 452 kts | 112° |
| 2026-04-22 11:12 | 49.82599 | 10.75877 | 39007 ft | 452 kts | 112° |
| 2026-04-22 11:13 | 49.80240 | 10.84894 | 39005 ft | 452 kts | 112° |
| 2026-04-22 11:13 | 49.77872 | 10.93908 | 39003 ft | 452 kts | 112° |
| 2026-04-22 11:14 | 49.75498 | 11.02910 | 39006 ft | 452 kts | 112° |
| 2026-04-22 11:14 | 49.73116 | 11.11904 | 39010 ft | 452 kts | 112° |
| 2026-04-22 11:15 | 49.70724 | 11.20903 | 39012 ft | 453 kts | 112° |
| 2026-04-22 11:15 | 49.68322 | 11.29908 | 39010 ft | 453 kts | 112° |
| 2026-04-22 11:16 | 49.65913 | 11.38898 | 39007 ft | 454 kts | 112° |
| 2026-04-22 11:16 | 49.64831 | 11.43446 | 38884 ft | 448 kts | 108° |
| 2026-04-22 11:16 | 49.63909 | 11.47920 | 38628 ft | 438 kts | 108° |
| 2026-04-22 11:16 | 49.62998 | 11.52364 | 38387 ft | 436 kts | 108° |
| 2026-04-22 11:17 | 49.62066 | 11.56889 | 38149 ft | 448 kts | 108° |
| 2026-04-22 11:17 | 49.61110 | 11.61506 | 37896 ft | 455 kts | 108° |
| 2026-04-22 11:17 | 49.60142 | 11.66157 | 37646 ft | 454 kts | 108° |
| 2026-04-22 11:17 | 49.59176 | 11.70778 | 37399 ft | 452 kts | 108° |
| 2026-04-22 11:18 | 49.58211 | 11.75380 | 37147 ft | 452 kts | 108° |
| 2026-04-22 11:18 | 49.57245 | 11.79976 | 36891 ft | 452 kts | 108° |
| 2026-04-22 11:18 | 49.56273 | 11.84588 | 36650 ft | 452 kts | 108° |
| 2026-04-22 11:18 | 49.55302 | 11.89188 | 36397 ft | 452 kts | 108° |
| 2026-04-22 11:19 | 49.54327 | 11.93797 | 36153 ft | 452 kts | 108° |
| 2026-04-22 11:19 | 49.53350 | 11.98403 | 35905 ft | 452 kts | 108° |
| 2026-04-22 11:19 | 49.52374 | 12.02996 | 35656 ft | 453 kts | 108° |
| 2026-04-22 11:19 | 49.51390 | 12.07611 | 35405 ft | 453 kts | 108° |
| 2026-04-22 11:20 | 49.50406 | 12.12220 | 35157 ft | 454 kts | 108° |
| 2026-04-22 11:20 | 49.49431 | 12.16780 | 34910 ft | 454 kts | 108° |
| 2026-04-22 11:20 | 49.48444 | 12.21380 | 34665 ft | 454 kts | 108° |
| 2026-04-22 11:20 | 49.47450 | 12.26005 | 34412 ft | 456 kts | 108° |
| 2026-04-22 11:21 | 49.46452 | 12.30637 | 34163 ft | 456 kts | 108° |
| 2026-04-22 11:21 | 49.45450 | 12.35274 | 33912 ft | 457 kts | 108° |
| 2026-04-22 11:21 | 49.44449 | 12.39903 | 33664 ft | 457 kts | 108° |
| 2026-04-22 11:21 | 49.43441 | 12.44549 | 33414 ft | 458 kts | 108° |
| 2026-04-22 11:22 | 49.42432 | 12.49189 | 33176 ft | 458 kts | 108° |
| 2026-04-22 11:22 | 49.41421 | 12.53830 | 32923 ft | 458 kts | 108° |
| 2026-04-22 11:22 | 49.40406 | 12.58477 | 32672 ft | 459 kts | 108° |
| 2026-04-22 11:22 | 49.39389 | 12.63122 | 32416 ft | 458 kts | 109° |
| 2026-04-22 11:23 | 49.38372 | 12.67761 | 32172 ft | 460 kts | 109° |
| 2026-04-22 11:23 | 49.37347 | 12.72420 | 31918 ft | 461 kts | 109° |
| 2026-04-22 11:23 | 49.36321 | 12.77079 | 31666 ft | 462 kts | 109° |
| 2026-04-22 11:23 | 49.35238 | 12.81681 | 31430 ft | 463 kts | 110° |
| 2026-04-22 11:24 | 49.34101 | 12.86280 | 31179 ft | 461 kts | 111° |
| 2026-04-22 11:24 | 49.32954 | 12.90879 | 30929 ft | 461 kts | 111° |
| 2026-04-22 11:24 | 49.31814 | 12.95469 | 30684 ft | 462 kts | 111° |
| 2026-04-22 11:24 | 49.30676 | 13.00071 | 30434 ft | 460 kts | 111° |
| 2026-04-22 11:25 | 49.29546 | 13.04652 | 30184 ft | 458 kts | 111° |
| 2026-04-22 11:25 | 49.28421 | 13.09215 | 29934 ft | 457 kts | 111° |
| 2026-04-22 11:25 | 49.27300 | 13.13754 | 29688 ft | 455 kts | 111° |
| 2026-04-22 11:25 | 49.26180 | 13.18278 | 29433 ft | 453 kts | 111° |
| 2026-04-22 11:26 | 49.25064 | 13.22780 | 29180 ft | 453 kts | 111° |
| 2026-04-22 11:26 | 49.23947 | 13.27276 | 28933 ft | 451 kts | 111° |
| 2026-04-22 11:26 | 49.22790 | 13.31729 | 28683 ft | 449 kts | 112° |
| 2026-04-22 11:26 | 49.21598 | 13.36136 | 28440 ft | 449 kts | 112° |
| 2026-04-22 11:27 | 49.20401 | 13.40526 | 28184 ft | 446 kts | 112° |
| 2026-04-22 11:27 | 49.19211 | 13.44894 | 27934 ft | 444 kts | 112° |
| 2026-04-22 11:27 | 49.18033 | 13.49236 | 27684 ft | 441 kts | 112° |
| 2026-04-22 11:27 | 49.16863 | 13.53555 | 27434 ft | 439 kts | 112° |
| 2026-04-22 11:28 | 49.15693 | 13.57874 | 27183 ft | 439 kts | 112° |
| 2026-04-22 11:28 | 49.14523 | 13.62185 | 26931 ft | 439 kts | 112° |
| 2026-04-22 11:28 | 49.13361 | 13.66463 | 26679 ft | 437 kts | 112° |
| 2026-04-22 11:28 | 49.12191 | 13.70758 | 26433 ft | 434 kts | 112° |
| 2026-04-22 11:29 | 49.11035 | 13.74995 | 26189 ft | 431 kts | 112° |
| 2026-04-22 11:29 | 49.09886 | 13.79202 | 25933 ft | 429 kts | 112° |
| 2026-04-22 11:29 | 49.08735 | 13.83405 | 25680 ft | 428 kts | 112° |
| 2026-04-22 11:29 | 49.07587 | 13.87590 | 25436 ft | 427 kts | 112° |
| 2026-04-22 11:30 | 49.06441 | 13.91760 | 25184 ft | 426 kts | 112° |
| 2026-04-22 11:30 | 49.05312 | 13.95864 | 24937 ft | 424 kts | 113° |
| 2026-04-22 11:30 | 49.04176 | 13.99983 | 24688 ft | 421 kts | 113° |
| 2026-04-22 11:30 | 49.03042 | 14.04086 | 24440 ft | 419 kts | 113° |
| 2026-04-22 11:31 | 49.01910 | 14.08180 | 24188 ft | 419 kts | 113° |
| 2026-04-22 11:31 | 49.00779 | 14.12260 | 23931 ft | 417 kts | 113° |
| 2026-04-22 11:31 | 48.99653 | 14.16316 | 23688 ft | 415 kts | 113° |
| 2026-04-22 11:31 | 48.98532 | 14.20348 | 23436 ft | 413 kts | 113° |
| 2026-04-22 11:32 | 48.97410 | 14.24373 | 23191 ft | 412 kts | 113° |
| 2026-04-22 11:32 | 48.96654 | 14.27085 | 23017 ft | 410 kts | 113° |
| 2026-04-22 11:32 | 48.95532 | 14.31011 | 22772 ft | 408 kts | 116° |
| 2026-04-22 11:32 | 48.94158 | 14.34777 | 22521 ft | 407 kts | 123° |
| 2026-04-22 11:33 | 48.92517 | 14.38239 | 22188 ft | 399 kts | 128° |
| 2026-04-22 11:33 | 48.90847 | 14.41520 | 21799 ft | 384 kts | 128° |
| 2026-04-22 11:33 | 48.89251 | 14.44672 | 21396 ft | 369 kts | 128° |
| 2026-04-22 11:33 | 48.87713 | 14.47716 | 20897 ft | 358 kts | 128° |
| 2026-04-22 11:34 | 48.86214 | 14.50681 | 20396 ft | 349 kts | 128° |
| 2026-04-22 11:34 | 48.84758 | 14.53558 | 19897 ft | 340 kts | 128° |
| 2026-04-22 11:34 | 48.83328 | 14.56381 | 19425 ft | 334 kts | 128° |
| 2026-04-22 11:34 | 48.81907 | 14.59183 | 19175 ft | 337 kts | 128° |
| 2026-04-22 11:35 | 48.80473 | 14.62005 | 18924 ft | 336 kts | 128° |
| 2026-04-22 11:35 | 48.79052 | 14.64800 | 18672 ft | 333 kts | 128° |
| 2026-04-22 11:35 | 48.77655 | 14.67546 | 18235 ft | 331 kts | 128° |
| 2026-04-22 11:35 | 48.76239 | 14.70325 | 17742 ft | 329 kts | 128° |
| 2026-04-22 11:36 | 48.74839 | 14.73069 | 17361 ft | 327 kts | 128° |
| 2026-04-22 11:36 | 48.73475 | 14.75742 | 17120 ft | 324 kts | 128° |
| 2026-04-22 11:36 | 48.72098 | 14.78436 | 17037 ft | 325 kts | 128° |
| 2026-04-22 11:36 | 48.70712 | 14.81144 | 17007 ft | 326 kts | 128° |
| 2026-04-22 11:37 | 48.69319 | 14.83861 | 16998 ft | 326 kts | 128° |
| 2026-04-22 11:37 | 48.67924 | 14.86580 | 16793 ft | 326 kts | 128° |
| 2026-04-22 11:37 | 48.66535 | 14.89283 | 16544 ft | 324 kts | 128° |
| 2026-04-22 11:37 | 48.65161 | 14.91956 | 16292 ft | 321 kts | 128° |
| 2026-04-22 11:38 | 48.63787 | 14.94627 | 16042 ft | 321 kts | 128° |
| 2026-04-22 11:38 | 48.62421 | 14.97279 | 15806 ft | 319 kts | 128° |
| 2026-04-22 11:38 | 48.59736 | 15.02594 | 15684 ft | 319 kts | 122° |
| 2026-04-22 11:39 | 48.58720 | 15.05565 | 15616 ft | 319 kts | 111° |
| 2026-04-22 11:39 | 48.58079 | 15.08771 | 15550 ft | 319 kts | 104° |
| 2026-04-22 11:39 | 48.57540 | 15.12009 | 15480 ft | 318 kts | 104° |
| 2026-04-22 11:39 | 48.56986 | 15.15264 | 15180 ft | 320 kts | 104° |
| 2026-04-22 11:40 | 48.56432 | 15.18484 | 14690 ft | 322 kts | 104° |
| 2026-04-22 11:40 | 48.55867 | 15.21753 | 14193 ft | 322 kts | 104° |
| 2026-04-22 11:40 | 48.55301 | 15.25024 | 13693 ft | 322 kts | 104° |
| 2026-04-22 11:40 | 48.54732 | 15.28301 | 13193 ft | 322 kts | 105° |
| 2026-04-22 11:41 | 48.54164 | 15.31570 | 12694 ft | 322 kts | 105° |
| 2026-04-22 11:41 | 48.53596 | 15.34840 | 12193 ft | 322 kts | 105° |
| 2026-04-22 11:41 | 48.53026 | 15.38114 | 11691 ft | 321 kts | 105° |
| 2026-04-22 11:41 | 48.52458 | 15.41366 | 11185 ft | 320 kts | 105° |
| 2026-04-22 11:42 | 48.51980 | 15.44602 | 10662 ft | 311 kts | 98° |
| 2026-04-22 11:42 | 48.51786 | 15.47808 | 10179 ft | 303 kts | 94° |
| 2026-04-22 11:42 | 48.51621 | 15.50943 | 9679 ft | 297 kts | 95° |
| 2026-04-22 11:42 | 48.51452 | 15.54014 | 9179 ft | 291 kts | 95° |
| 2026-04-22 11:43 | 48.51284 | 15.57016 | 8680 ft | 286 kts | 95° |
| 2026-04-22 11:43 | 48.51115 | 15.60008 | 8174 ft | 285 kts | 95° |
| 2026-04-22 11:43 | 48.50946 | 15.62968 | 7677 ft | 281 kts | 95° |
| 2026-04-22 11:43 | 48.50778 | 15.65899 | 7176 ft | 280 kts | 95° |
| 2026-04-22 11:44 | 48.50610 | 15.68819 | 6677 ft | 278 kts | 95° |
| 2026-04-22 11:44 | 48.50442 | 15.71703 | 6182 ft | 274 kts | 95° |
| 2026-04-22 11:44 | 48.50276 | 15.74561 | 6041 ft | 277 kts | 95° |
| 2026-04-22 11:44 | 48.50104 | 15.77474 | 5940 ft | 277 kts | 95° |
| 2026-04-22 11:45 | 48.49934 | 15.80342 | 5847 ft | 274 kts | 95° |
| 2026-04-22 11:45 | 48.49764 | 15.83213 | 5790 ft | 274 kts | 95° |
| 2026-04-22 11:45 | 48.49594 | 15.86079 | 5787 ft | 275 kts | 95° |
| 2026-04-22 11:45 | 48.49423 | 15.88955 | 5787 ft | 275 kts | 95° |
| 2026-04-22 11:46 | 48.49251 | 15.91826 | 5785 ft | 275 kts | 95° |
| 2026-04-22 11:46 | 48.49079 | 15.94688 | 5787 ft | 275 kts | 95° |
| 2026-04-22 11:46 | 48.48908 | 15.97519 | 5787 ft | 274 kts | 95° |
| 2026-04-22 11:46 | 48.48733 | 16.00389 | 5787 ft | 275 kts | 95° |
| 2026-04-22 11:47 | 48.48558 | 16.03257 | 5786 ft | 274 kts | 95° |
| 2026-04-22 11:47 | 48.48382 | 16.06123 | 5785 ft | 275 kts | 95° |
| 2026-04-22 11:47 | 48.48207 | 16.08994 | 5788 ft | 275 kts | 95° |
| 2026-04-22 11:47 | 48.48043 | 16.11864 | 5787 ft | 274 kts | 94° |
| 2026-04-22 11:48 | 48.47929 | 16.14733 | 5787 ft | 274 kts | 93° |
| 2026-04-22 11:48 | 48.47833 | 16.17606 | 5787 ft | 275 kts | 93° |
| 2026-04-22 11:48 | 48.47736 | 16.20479 | 5788 ft | 275 kts | 93° |
| 2026-04-22 11:48 | 48.47632 | 16.23354 | 5787 ft | 274 kts | 93° |
| 2026-04-22 11:49 | 48.47524 | 16.26228 | 5787 ft | 274 kts | 93° |
| 2026-04-22 11:49 | 48.47412 | 16.29097 | 5787 ft | 275 kts | 93° |
| 2026-04-22 11:49 | 48.47299 | 16.31967 | 5787 ft | 274 kts | 93° |
| 2026-04-22 11:49 | 48.47185 | 16.34835 | 5788 ft | 275 kts | 93° |
| 2026-04-22 11:50 | 48.47070 | 16.37710 | 5789 ft | 275 kts | 93° |
| 2026-04-22 11:50 | 48.46955 | 16.40586 | 5787 ft | 275 kts | 93° |
| 2026-04-22 11:50 | 48.46840 | 16.43457 | 5786 ft | 275 kts | 93° |
| 2026-04-22 11:50 | 48.46725 | 16.46296 | 5787 ft | 275 kts | 94° |
| 2026-04-22 11:51 | 48.46606 | 16.49171 | 5787 ft | 274 kts | 94° |
| 2026-04-22 11:51 | 48.46484 | 16.52043 | 5786 ft | 275 kts | 95° |
| 2026-04-22 11:51 | 48.45948 | 16.54769 | 5788 ft | 274 kts | 121° |
| 2026-04-22 11:51 | 48.44646 | 16.56839 | 5788 ft | 274 kts | 148° |
| 2026-04-22 11:52 | 48.42892 | 16.57891 | 5787 ft | 273 kts | 165° |
| 2026-04-22 11:52 | 48.41054 | 16.58637 | 5787 ft | 273 kts | 166° |
| 2026-04-22 11:52 | 48.39211 | 16.59356 | 5787 ft | 273 kts | 166° |
| 2026-04-22 11:52 | 48.37378 | 16.60086 | 5790 ft | 273 kts | 165° |
| 2026-04-22 11:53 | 48.35539 | 16.60838 | 5787 ft | 273 kts | 165° |
| 2026-04-22 11:53 | 48.33706 | 16.61603 | 5788 ft | 273 kts | 165° |
| 2026-04-22 11:53 | 48.31878 | 16.62372 | 5787 ft | 273 kts | 165° |
| 2026-04-22 11:53 | 48.30072 | 16.63134 | 5787 ft | 273 kts | 165° |
| 2026-04-22 11:54 | 48.28222 | 16.63914 | 5788 ft | 273 kts | 165° |
| 2026-04-22 11:54 | 48.26418 | 16.64675 | 5787 ft | 273 kts | 165° |
| 2026-04-22 11:54 | 48.24588 | 16.65445 | 5788 ft | 273 kts | 165° |
| 2026-04-22 11:54 | 48.22760 | 16.66211 | 5787 ft | 273 kts | 165° |
| 2026-04-22 11:55 | 48.20930 | 16.66978 | 5787 ft | 273 kts | 165° |
| 2026-04-22 11:55 | 48.19099 | 16.67746 | 5787 ft | 273 kts | 165° |
| 2026-04-22 11:55 | 48.17274 | 16.68510 | 5785 ft | 273 kts | 165° |
| 2026-04-22 11:55 | 48.15444 | 16.69275 | 5787 ft | 273 kts | 165° |
| 2026-04-22 11:56 | 48.13616 | 16.70040 | 5786 ft | 273 kts | 165° |
| 2026-04-22 11:56 | 48.11787 | 16.70804 | 5788 ft | 273 kts | 165° |
| 2026-04-22 11:56 | 48.09957 | 16.71569 | 5785 ft | 273 kts | 165° |
| 2026-04-22 11:56 | 48.08128 | 16.72332 | 5787 ft | 273 kts | 165° |
| 2026-04-22 11:57 | 48.06289 | 16.73097 | 5787 ft | 273 kts | 165° |
| 2026-04-22 11:57 | 48.04460 | 16.73857 | 5787 ft | 273 kts | 165° |
| 2026-04-22 11:57 | 48.02652 | 16.74608 | 5786 ft | 273 kts | 165° |
| 2026-04-22 11:57 | 48.00818 | 16.75367 | 5786 ft | 273 kts | 165° |
| 2026-04-22 11:58 | 47.98990 | 16.76125 | 5790 ft | 273 kts | 165° |
| 2026-04-22 11:58 | 47.97156 | 16.76886 | 5788 ft | 273 kts | 165° |
| 2026-04-22 11:58 | 47.95326 | 16.77644 | 5786 ft | 273 kts | 165° |
| 2026-04-22 11:58 | 47.93500 | 16.78400 | 5784 ft | 273 kts | 165° |
| 2026-04-22 11:59 | 47.91671 | 16.79156 | 5785 ft | 273 kts | 165° |
| 2026-04-22 11:59 | 47.89845 | 16.79909 | 5787 ft | 273 kts | 165° |
| 2026-04-22 11:59 | 47.88013 | 16.80664 | 5787 ft | 273 kts | 165° |
| 2026-04-22 11:59 | 47.86184 | 16.81417 | 5787 ft | 273 kts | 165° |
| 2026-04-22 12:00 | 47.84376 | 16.82161 | 5788 ft | 273 kts | 165° |
| 2026-04-22 12:00 | 47.82547 | 16.82914 | 5787 ft | 273 kts | 165° |
| 2026-04-22 12:00 | 47.80717 | 16.83665 | 5787 ft | 273 kts | 165° |
| 2026-04-22 12:00 | 47.78887 | 16.84417 | 5787 ft | 273 kts | 165° |
| 2026-04-22 12:01 | 47.77058 | 16.85167 | 5787 ft | 273 kts | 165° |
| 2026-04-22 12:01 | 47.75228 | 16.85918 | 5787 ft | 273 kts | 165° |
| 2026-04-22 12:01 | 47.73383 | 16.86531 | 5785 ft | 272 kts | 178° |
| 2026-04-22 12:01 | 47.71541 | 16.86040 | 5788 ft | 271 kts | 205° |
| 2026-04-22 12:02 | 47.70060 | 16.84346 | 5788 ft | 271 kts | 232° |
| 2026-04-22 12:02 | 47.69247 | 16.81855 | 5787 ft | 269 kts | 255° |
| 2026-04-22 12:02 | 47.69056 | 16.79165 | 5680 ft | 256 kts | 279° |
| 2026-04-22 12:02 | 47.69667 | 16.76776 | 5379 ft | 246 kts | 304° |
| 2026-04-22 12:03 | 47.70887 | 16.75071 | 5072 ft | 237 kts | 331° |
| 2026-04-22 12:03 | 47.72499 | 16.74217 | 4993 ft | 251 kts | 345° |
| 2026-04-22 12:03 | 47.74164 | 16.73557 | 4886 ft | 246 kts | 345° |
| 2026-04-22 12:03 | 47.75799 | 16.72893 | 4793 ft | 247 kts | 344° |
| 2026-04-22 12:04 | 47.77444 | 16.72216 | 4719 ft | 244 kts | 344° |
| 2026-04-22 12:04 | 47.79090 | 16.71603 | 4444 ft | 244 kts | 346° |
| 2026-04-22 12:04 | 47.80731 | 16.70959 | 4113 ft | 244 kts | 344° |
| 2026-04-22 12:04 | 47.82347 | 16.70281 | 3903 ft | 238 kts | 344° |
| 2026-04-22 12:05 | 47.83970 | 16.69603 | 3822 ft | 246 kts | 344° |
| 2026-04-22 12:05 | 47.85594 | 16.68924 | 3786 ft | 237 kts | 344° |
| 2026-04-22 12:05 | 47.87139 | 16.68277 | 3784 ft | 223 kts | 344° |
| 2026-04-22 12:05 | 47.88581 | 16.67672 | 3794 ft | 206 kts | 344° |
| 2026-04-22 12:06 | 47.89889 | 16.67123 | 3780 ft | 185 kts | 343° |
| 2026-04-22 12:06 | 47.91033 | 16.66645 | 3784 ft | 157 kts | 343° |
| 2026-04-22 12:06 | 47.92013 | 16.66232 | 3767 ft | 136 kts | 343° |
| 2026-04-22 12:06 | 47.92915 | 16.65852 | 3766 ft | 139 kts | 343° |
| 2026-04-22 12:07 | 47.93829 | 16.65469 | 3603 ft | 134 kts | 343° |
| 2026-04-22 12:07 | 47.94729 | 16.65090 | 3443 ft | 134 kts | 343° |
| 2026-04-22 12:07 | 47.95626 | 16.64713 | 3265 ft | 134 kts | 343° |
| 2026-04-22 12:07 | 47.96520 | 16.64337 | 3094 ft | 133 kts | 343° |
| 2026-04-22 12:08 | 47.97410 | 16.63963 | 2919 ft | 133 kts | 343° |
| 2026-04-22 12:08 | 47.98296 | 16.63590 | 2748 ft | 133 kts | 343° |
| 2026-04-22 12:08 | 47.99176 | 16.63219 | 2570 ft | 132 kts | 343° |
| 2026-04-22 12:08 | 48.00051 | 16.62852 | 2400 ft | 131 kts | 343° |
| 2026-04-22 12:09 | 48.00933 | 16.62480 | 2227 ft | 131 kts | 343° |
| 2026-04-22 12:09 | 48.01810 | 16.62110 | 2052 ft | 132 kts | 343° |
| 2026-04-22 12:09 | 48.02686 | 16.61741 | 1878 ft | 131 kts | 343° |
| 2026-04-22 12:09 | 48.03561 | 16.61372 | 1703 ft | 129 kts | 343° |
| 2026-04-22 12:10 | 48.04432 | 16.61004 | 1528 ft | 130 kts | 343° |
| 2026-04-22 12:10 | 48.05301 | 16.60638 | 1359 ft | 130 kts | 343° |
| 2026-04-22 12:10 | 48.06166 | 16.60273 | 1187 ft | 130 kts | 343° |
| 2026-04-22 12:10 | 48.07028 | 16.59909 | 1016 ft | 129 kts | 343° |
| 2026-04-22 12:11 | 48.07890 | 16.59543 | 829 ft | 127 kts | 343° |
| 2026-04-22 12:11 | 48.08747 | 16.59185 | 690 ft | 129 kts | 344° |
| 2026-04-22 12:11 | 48.09583 | 16.58839 | 625 ft | 115 kts | 343° |
| 2026-04-22 12:11 | 48.10210 | 16.58558 | 619 ft | 73 kts | 344° |
| 2026-04-22 12:12 | 48.10573 | 16.58406 | 619 ft | 42 kts | 343° |
| 2026-04-22 12:12 | 48.10774 | 16.58217 | 611 ft | 24 kts | 316° |
| 2026-04-22 12:12 | 48.10895 | 16.58030 | 620 ft | 8 kts | 313° |
| 2026-04-22 12:12 | 48.10896 | 16.58028 | 620 ft | 0 kts | 313° |
| 2026-04-22 12:13 | 48.10941 | 16.57955 | 611 ft | 13 kts | 313° |
| 2026-04-22 12:13 | 48.11028 | 16.57826 | 617 ft | 23 kts | 309° |
| 2026-04-22 12:14 | 48.11103 | 16.57606 | 626 ft | 25 kts | 292° |
| 2026-04-22 12:14 | 48.11178 | 16.57367 | 622 ft | 26 kts | 297° |
| 2026-04-22 12:14 | 48.11257 | 16.57130 | 629 ft | 26 kts | 295° |
| 2026-04-22 12:14 | 48.11334 | 16.56891 | 627 ft | 22 kts | 296° |
| 2026-04-22 12:15 | 48.11453 | 16.56802 | 614 ft | 18 kts | 321° |
| 2026-04-22 12:15 | 48.11514 | 16.56632 | 615 ft | 22 kts | 292° |
| 2026-04-22 12:15 | 48.11594 | 16.56426 | 613 ft | 24 kts | 311° |
| 2026-04-22 12:15 | 48.11721 | 16.56432 | 615 ft | 11 kts | 37° |
| 2026-04-22 12:16 | 48.11794 | 16.56505 | 601 ft | 1 kts | 11° |
| 2026-04-22 12:16 | 48.11816 | 16.56511 | 600 ft | 0 kts | 11° |